sensor_id;sensor_type;location;lat;lon;timestamp;temperature;humidity
11122;DHT22;5615;49.304;10.576;2023-08-24T00:00:42;17.50;99.90
11122;DHT22;5615;49.304;10.576;2023-08-24T00:03:09;17.40;99.90
11122;DHT22;5615;49.304;10.576;2023-08-24T00:05:36;17.30;99.90
11122;DHT22;5615;49.304;10.576;2023-08-24T00:08:04;17.30;99.90
11122;DHT22;5615;49.304;10.576;2023-08-24T00:10:31;17.30;99.90
11122;DHT22;5615;49.304;10.576;2023-08-24T00:12:59;17.30;99.90
11122;DHT22;5615;49.304;10.576;2023-08-24T00:15:26;17.10;99.90
11122;DHT22;5615;49.304;10.576;2023-08-24T00:17:53;17.10;99.90
11122;DHT22;5615;49.304;10.576;2023-08-24T00:20:19;17.10;99.90
11122;DHT22;5615;49.304;10.576;2023-08-24T00:22:46;17.00;99.90
11122;DHT22;5615;49.304;10.576;2023-08-24T00:25:14;17.00;99.90
11122;DHT22;5615;49.304;10.576;2023-08-24T00:27:41;17.00;99.90
11122;DHT22;5615;49.304;10.576;2023-08-24T00:30:10;17.00;99.90
11122;DHT22;5615;49.304;10.576;2023-08-24T00:32:36;16.90;99.90
11122;DHT22;5615;49.304;10.576;2023-08-24T00:35:04;16.90;99.90
11122;DHT22;5615;49.304;10.576;2023-08-24T00:37:32;17.00;99.90
11122;DHT22;5615;49.304;10.576;2023-08-24T00:40:00;17.10;99.90
11122;DHT22;5615;49.304;10.576;2023-08-24T00:42:28;17.00;99.90
11122;DHT22;5615;49.304;10.576;2023-08-24T00:44:55;16.90;99.90
11122;DHT22;5615;49.304;10.576;2023-08-24T00:47:23;16.80;99.90
11122;DHT22;5615;49.304;10.576;2023-08-24T00:49:50;16.80;99.90
11122;DHT22;5615;49.304;10.576;2023-08-24T00:52:17;16.70;99.90
11122;DHT22;5615;49.304;10.576;2023-08-24T00:54:44;16.70;99.90
11122;DHT22;5615;49.304;10.576;2023-08-24T00:57:12;16.70;99.90
11122;DHT22;5615;49.304;10.576;2023-08-24T00:59:39;16.60;99.90
11122;DHT22;5615;49.304;10.576;2023-08-24T01:02:06;16.60;99.90
11122;DHT22;5615;49.304;10.576;2023-08-24T01:04:34;16.80;99.90
11122;DHT22;5615;49.304;10.576;2023-08-24T01:07:01;17.00;99.90
11122;DHT22;5615;49.304;10.576;2023-08-24T01:09:28;17.10;99.90
11122;DHT22;5615;49.304;10.576;2023-08-24T01:12:00;17.00;99.90
11122;DHT22;5615;49.304;10.576;2023-08-24T01:14:36;17.10;99.90
11122;DHT22;5615;49.304;10.576;2023-08-24T01:17:09;17.00;99.90
11122;DHT22;5615;49.304;10.576;2023-08-24T01:19:42;16.80;99.90
11122;DHT22;5615;49.304;10.576;2023-08-24T01:22:20;16.90;99.90
11122;DHT22;5615;49.304;10.576;2023-08-24T01:24:54;16.70;99.90
11122;DHT22;5615;49.304;10.576;2023-08-24T01:27:26;16.60;99.90
11122;DHT22;5615;49.304;10.576;2023-08-24T01:29:55;16.70;99.90
11122;DHT22;5615;49.304;10.576;2023-08-24T01:32:22;16.90;99.90
11122;DHT22;5615;49.304;10.576;2023-08-24T01:34:49;17.00;99.90
11122;DHT22;5615;49.304;10.576;2023-08-24T01:37:15;16.90;99.90
11122;DHT22;5615;49.304;10.576;2023-08-24T01:39:44;16.70;99.90
11122;DHT22;5615;49.304;10.576;2023-08-24T01:42:18;16.50;99.90
11122;DHT22;5615;49.304;10.576;2023-08-24T01:44:50;16.40;99.90
11122;DHT22;5615;49.304;10.576;2023-08-24T01:47:19;16.30;99.90
11122;DHT22;5615;49.304;10.576;2023-08-24T01:49:47;16.30;99.90
11122;DHT22;5615;49.304;10.576;2023-08-24T01:52:14;16.20;99.90
11122;DHT22;5615;49.304;10.576;2023-08-24T01:54:41;16.20;99.90
11122;DHT22;5615;49.304;10.576;2023-08-24T01:57:10;16.20;99.90
11122;DHT22;5615;49.304;10.576;2023-08-24T01:59:36;16.10;99.90
11122;DHT22;5615;49.304;10.576;2023-08-24T02:02:05;16.10;99.90
11122;DHT22;5615;49.304;10.576;2023-08-24T02:04:31;16.10;99.90
11122;DHT22;5615;49.304;10.576;2023-08-24T02:06:58;16.20;99.90
11122;DHT22;5615;49.304;10.576;2023-08-24T02:09:25;16.30;99.90
11122;DHT22;5615;49.304;10.576;2023-08-24T02:11:51;16.20;99.90
11122;DHT22;5615;49.304;10.576;2023-08-24T02:14:18;16.10;99.90
11122;DHT22;5615;49.304;10.576;2023-08-24T02:16:45;16.00;99.90
11122;DHT22;5615;49.304;10.576;2023-08-24T02:19:12;16.00;99.90
11122;DHT22;5615;49.304;10.576;2023-08-24T02:21:39;15.90;99.90
11122;DHT22;5615;49.304;10.576;2023-08-24T02:24:06;15.80;99.90
11122;DHT22;5615;49.304;10.576;2023-08-24T02:26:33;15.70;99.90
11122;DHT22;5615;49.304;10.576;2023-08-24T02:28:59;15.80;99.90
11122;DHT22;5615;49.304;10.576;2023-08-24T02:31:26;15.90;99.90
11122;DHT22;5615;49.304;10.576;2023-08-24T02:33:53;15.90;99.90
11122;DHT22;5615;49.304;10.576;2023-08-24T02:36:21;16.00;99.90
11122;DHT22;5615;49.304;10.576;2023-08-24T02:38:47;15.90;99.90
11122;DHT22;5615;49.304;10.576;2023-08-24T02:41:14;15.80;99.90
11122;DHT22;5615;49.304;10.576;2023-08-24T02:43:40;15.80;99.90
11122;DHT22;5615;49.304;10.576;2023-08-24T02:46:08;15.80;99.90
11122;DHT22;5615;49.304;10.576;2023-08-24T02:48:35;15.90;99.90
11122;DHT22;5615;49.304;10.576;2023-08-24T02:51:03;16.00;99.90
11122;DHT22;5615;49.304;10.576;2023-08-24T02:53:32;16.00;99.90
11122;DHT22;5615;49.304;10.576;2023-08-24T02:55:58;16.10;99.90
11122;DHT22;5615;49.304;10.576;2023-08-24T02:58:25;16.10;99.90
11122;DHT22;5615;49.304;10.576;2023-08-24T03:00:52;16.10;99.90
11122;DHT22;5615;49.304;10.576;2023-08-24T03:03:19;16.10;99.90
11122;DHT22;5615;49.304;10.576;2023-08-24T03:05:56;16.00;99.90
11122;DHT22;5615;49.304;10.576;2023-08-24T03:08:22;16.00;99.90
11122;DHT22;5615;49.304;10.576;2023-08-24T03:10:51;15.80;99.90
11122;DHT22;5615;49.304;10.576;2023-08-24T03:13:18;15.80;99.90
11122;DHT22;5615;49.304;10.576;2023-08-24T03:15:44;15.70;99.90
11122;DHT22;5615;49.304;10.576;2023-08-24T03:18:12;15.50;99.90
11122;DHT22;5615;49.304;10.576;2023-08-24T03:20:39;15.40;99.90
11122;DHT22;5615;49.304;10.576;2023-08-24T03:23:06;15.30;99.90
11122;DHT22;5615;49.304;10.576;2023-08-24T03:25:36;15.30;99.90
11122;DHT22;5615;49.304;10.576;2023-08-24T03:28:05;15.40;99.90
11122;DHT22;5615;49.304;10.576;2023-08-24T03:30:32;15.50;99.90
11122;DHT22;5615;49.304;10.576;2023-08-24T03:32:59;15.30;99.90
11122;DHT22;5615;49.304;10.576;2023-08-24T03:35:26;15.30;99.90
11122;DHT22;5615;49.304;10.576;2023-08-24T03:37:53;15.30;99.90
11122;DHT22;5615;49.304;10.576;2023-08-24T03:40:19;15.20;99.90
11122;DHT22;5615;49.304;10.576;2023-08-24T03:42:46;15.20;99.90
11122;DHT22;5615;49.304;10.576;2023-08-24T03:45:14;15.20;99.90
11122;DHT22;5615;49.304;10.576;2023-08-24T03:47:41;15.30;99.90
11122;DHT22;5615;49.304;10.576;2023-08-24T03:50:08;15.30;99.90
11122;DHT22;5615;49.304;10.576;2023-08-24T03:52:35;15.40;99.90
11122;DHT22;5615;49.304;10.576;2023-08-24T03:55:02;15.40;99.90
11122;DHT22;5615;49.304;10.576;2023-08-24T03:57:28;15.40;99.90
11122;DHT22;5615;49.304;10.576;2023-08-24T03:59:55;15.30;99.90
11122;DHT22;5615;49.304;10.576;2023-08-24T04:02:24;15.30;99.90
11122;DHT22;5615;49.304;10.576;2023-08-24T04:04:52;15.30;99.90
11122;DHT22;5615;49.304;10.576;2023-08-24T04:07:19;15.30;99.90
11122;DHT22;5615;49.304;10.576;2023-08-24T04:09:46;15.30;99.90
11122;DHT22;5615;49.304;10.576;2023-08-24T04:12:12;15.40;99.90
11122;DHT22;5615;49.304;10.576;2023-08-24T04:14:39;15.40;99.90
11122;DHT22;5615;49.304;10.576;2023-08-24T04:17:05;15.40;99.90
11122;DHT22;5615;49.304;10.576;2023-08-24T04:19:35;15.50;99.90
11122;DHT22;5615;49.304;10.576;2023-08-24T04:22:04;15.40;99.90
11122;DHT22;5615;49.304;10.576;2023-08-24T04:24:30;15.40;99.90
11122;DHT22;5615;49.304;10.576;2023-08-24T04:26:57;15.40;99.90
11122;DHT22;5615;49.304;10.576;2023-08-24T04:29:24;15.40;99.90
11122;DHT22;5615;49.304;10.576;2023-08-24T04:31:50;15.40;99.90
11122;DHT22;5615;49.304;10.576;2023-08-24T04:34:17;15.50;99.90
11122;DHT22;5615;49.304;10.576;2023-08-24T04:36:45;15.50;99.90
11122;DHT22;5615;49.304;10.576;2023-08-24T04:39:11;15.60;99.90
11122;DHT22;5615;49.304;10.576;2023-08-24T04:41:39;15.60;99.90
11122;DHT22;5615;49.304;10.576;2023-08-24T04:44:05;15.60;99.90
11122;DHT22;5615;49.304;10.576;2023-08-24T04:46:33;15.60;99.90
11122;DHT22;5615;49.304;10.576;2023-08-24T04:49:00;15.80;99.90
11122;DHT22;5615;49.304;10.576;2023-08-24T04:51:26;16.00;99.90
11122;DHT22;5615;49.304;10.576;2023-08-24T04:53:55;16.10;99.90
11122;DHT22;5615;49.304;10.576;2023-08-24T04:56:22;16.30;99.90
11122;DHT22;5615;49.304;10.576;2023-08-24T04:58:53;16.40;99.90
11122;DHT22;5615;49.304;10.576;2023-08-24T05:01:20;16.60;99.90
11122;DHT22;5615;49.304;10.576;2023-08-24T05:03:47;16.70;99.90
11122;DHT22;5615;49.304;10.576;2023-08-24T05:06:13;16.80;99.90
11122;DHT22;5615;49.304;10.576;2023-08-24T05:08:40;17.00;99.90
11122;DHT22;5615;49.304;10.576;2023-08-24T05:11:11;17.10;99.90
11122;DHT22;5615;49.304;10.576;2023-08-24T05:13:39;17.00;99.90
11122;DHT22;5615;49.304;10.576;2023-08-24T05:16:05;17.20;99.90
11122;DHT22;5615;49.304;10.576;2023-08-24T05:18:34;17.40;99.90
11122;DHT22;5615;49.304;10.576;2023-08-24T05:21:00;17.40;99.90
11122;DHT22;5615;49.304;10.576;2023-08-24T05:23:27;17.50;99.90
11122;DHT22;5615;49.304;10.576;2023-08-24T05:25:53;17.40;99.90
11122;DHT22;5615;49.304;10.576;2023-08-24T05:28:21;17.40;99.90
11122;DHT22;5615;49.304;10.576;2023-08-24T05:30:48;17.40;99.90
11122;DHT22;5615;49.304;10.576;2023-08-24T05:33:14;17.30;99.90
11122;DHT22;5615;49.304;10.576;2023-08-24T05:35:41;17.30;99.90
11122;DHT22;5615;49.304;10.576;2023-08-24T05:38:08;17.30;99.90
11122;DHT22;5615;49.304;10.576;2023-08-24T05:40:35;17.40;99.90
11122;DHT22;5615;49.304;10.576;2023-08-24T05:43:03;17.50;99.90
11122;DHT22;5615;49.304;10.576;2023-08-24T05:45:31;17.50;99.90
11122;DHT22;5615;49.304;10.576;2023-08-24T05:47:58;17.70;99.90
11122;DHT22;5615;49.304;10.576;2023-08-24T05:50:24;17.80;99.90
11122;DHT22;5615;49.304;10.576;2023-08-24T05:52:51;17.90;99.90
11122;DHT22;5615;49.304;10.576;2023-08-24T05:55:17;18.00;99.90
11122;DHT22;5615;49.304;10.576;2023-08-24T05:57:44;18.20;99.90
11122;DHT22;5615;49.304;10.576;2023-08-24T06:00:12;18.30;99.90
11122;DHT22;5615;49.304;10.576;2023-08-24T06:02:40;18.40;99.90
11122;DHT22;5615;49.304;10.576;2023-08-24T06:05:07;18.50;99.90
11122;DHT22;5615;49.304;10.576;2023-08-24T06:07:35;18.60;99.90
11122;DHT22;5615;49.304;10.576;2023-08-24T06:10:03;18.70;99.90
11122;DHT22;5615;49.304;10.576;2023-08-24T06:12:29;18.60;99.90
11122;DHT22;5615;49.304;10.576;2023-08-24T06:14:56;18.60;99.90
11122;DHT22;5615;49.304;10.576;2023-08-24T06:17:22;18.50;99.90
11122;DHT22;5615;49.304;10.576;2023-08-24T06:19:50;18.60;99.90
11122;DHT22;5615;49.304;10.576;2023-08-24T06:22:17;18.80;99.90
11122;DHT22;5615;49.304;10.576;2023-08-24T06:24:44;19.10;99.90
11122;DHT22;5615;49.304;10.576;2023-08-24T06:27:10;19.30;99.90
11122;DHT22;5615;49.304;10.576;2023-08-24T06:29:37;19.50;99.90
11122;DHT22;5615;49.304;10.576;2023-08-24T06:32:04;19.70;99.90
11122;DHT22;5615;49.304;10.576;2023-08-24T06:34:30;19.70;99.90
11122;DHT22;5615;49.304;10.576;2023-08-24T06:37:01;19.80;99.90
11122;DHT22;5615;49.304;10.576;2023-08-24T06:39:28;20.00;99.90
11122;DHT22;5615;49.304;10.576;2023-08-24T06:41:55;20.00;99.90
11122;DHT22;5615;49.304;10.576;2023-08-24T06:44:21;20.20;99.90
11122;DHT22;5615;49.304;10.576;2023-08-24T06:46:48;20.40;99.90
11122;DHT22;5615;49.304;10.576;2023-08-24T06:49:15;20.90;99.90
11122;DHT22;5615;49.304;10.576;2023-08-24T06:51:41;21.20;99.90
11122;DHT22;5615;49.304;10.576;2023-08-24T06:54:09;21.50;99.90
11122;DHT22;5615;49.304;10.576;2023-08-24T06:56:36;21.80;99.90
11122;DHT22;5615;49.304;10.576;2023-08-24T06:59:02;22.00;99.90
11122;DHT22;5615;49.304;10.576;2023-08-24T07:01:29;22.10;99.90
11122;DHT22;5615;49.304;10.576;2023-08-24T07:03:57;22.20;99.90
11122;DHT22;5615;49.304;10.576;2023-08-24T07:06:23;22.20;99.90
11122;DHT22;5615;49.304;10.576;2023-08-24T07:08:50;22.30;99.90
11122;DHT22;5615;49.304;10.576;2023-08-24T07:11:18;22.40;99.90
11122;DHT22;5615;49.304;10.576;2023-08-24T07:13:46;22.60;99.90
11122;DHT22;5615;49.304;10.576;2023-08-24T07:16:13;22.90;99.90
11122;DHT22;5615;49.304;10.576;2023-08-24T07:18:40;22.90;99.90
11122;DHT22;5615;49.304;10.576;2023-08-24T07:21:07;23.00;99.90
11122;DHT22;5615;49.304;10.576;2023-08-24T07:23:33;23.10;99.90
11122;DHT22;5615;49.304;10.576;2023-08-24T07:26:00;23.00;99.90
11122;DHT22;5615;49.304;10.576;2023-08-24T07:28:28;23.10;99.90
11122;DHT22;5615;49.304;10.576;2023-08-24T07:30:55;23.30;99.90
11122;DHT22;5615;49.304;10.576;2023-08-24T07:33:22;23.20;99.90
11122;DHT22;5615;49.304;10.576;2023-08-24T07:35:49;23.40;99.90
11122;DHT22;5615;49.304;10.576;2023-08-24T07:38:15;23.60;99.90
11122;DHT22;5615;49.304;10.576;2023-08-24T07:40:42;23.70;99.90
11122;DHT22;5615;49.304;10.576;2023-08-24T07:43:09;23.90;99.90
11122;DHT22;5615;49.304;10.576;2023-08-24T07:45:37;23.80;99.90
11122;DHT22;5615;49.304;10.576;2023-08-24T07:48:04;23.90;99.90
11122;DHT22;5615;49.304;10.576;2023-08-24T07:50:31;24.20;99.90
11122;DHT22;5615;49.304;10.576;2023-08-24T07:52:57;24.40;99.90
11122;DHT22;5615;49.304;10.576;2023-08-24T07:55:24;24.40;99.90
11122;DHT22;5615;49.304;10.576;2023-08-24T07:57:51;24.30;99.90
11122;DHT22;5615;49.304;10.576;2023-08-24T08:00:18;24.20;99.90
11122;DHT22;5615;49.304;10.576;2023-08-24T08:02:46;24.30;99.90
11122;DHT22;5615;49.304;10.576;2023-08-24T08:05:15;24.80;99.90
11122;DHT22;5615;49.304;10.576;2023-08-24T08:07:42;25.10;99.90
11122;DHT22;5615;49.304;10.576;2023-08-24T08:10:09;25.40;99.90
11122;DHT22;5615;49.304;10.576;2023-08-24T08:12:36;25.60;99.90
11122;DHT22;5615;49.304;10.576;2023-08-24T08:15:03;25.60;99.90
11122;DHT22;5615;49.304;10.576;2023-08-24T08:17:30;25.60;99.90
11122;DHT22;5615;49.304;10.576;2023-08-24T08:20:00;26.10;99.90
11122;DHT22;5615;49.304;10.576;2023-08-24T08:22:27;26.50;99.90
11122;DHT22;5615;49.304;10.576;2023-08-24T08:24:54;26.90;99.90
11122;DHT22;5615;49.304;10.576;2023-08-24T08:27:21;27.40;99.90
11122;DHT22;5615;49.304;10.576;2023-08-24T08:29:49;27.60;99.90
11122;DHT22;5615;49.304;10.576;2023-08-24T08:32:16;27.70;99.90
11122;DHT22;5615;49.304;10.576;2023-08-24T08:34:43;27.70;99.90
11122;DHT22;5615;49.304;10.576;2023-08-24T08:37:11;27.80;99.90
11122;DHT22;5615;49.304;10.576;2023-08-24T08:39:37;28.00;99.90
11122;DHT22;5615;49.304;10.576;2023-08-24T08:42:04;28.00;99.90
11122;DHT22;5615;49.304;10.576;2023-08-24T08:44:31;28.40;99.90
11122;DHT22;5615;49.304;10.576;2023-08-24T08:46:59;28.70;99.90
11122;DHT22;5615;49.304;10.576;2023-08-24T08:49:25;29.00;99.90
11122;DHT22;5615;49.304;10.576;2023-08-24T08:51:52;29.30;99.90
11122;DHT22;5615;49.304;10.576;2023-08-24T08:54:20;29.60;99.90
11122;DHT22;5615;49.304;10.576;2023-08-24T08:56:48;30.00;99.90
11122;DHT22;5615;49.304;10.576;2023-08-24T08:59:15;29.80;99.90
11122;DHT22;5615;49.304;10.576;2023-08-24T09:01:43;29.80;99.90
11122;DHT22;5615;49.304;10.576;2023-08-24T09:04:11;29.60;99.90
11122;DHT22;5615;49.304;10.576;2023-08-24T09:06:38;29.20;99.90
11122;DHT22;5615;49.304;10.576;2023-08-24T09:09:05;28.90;99.90
11122;DHT22;5615;49.304;10.576;2023-08-24T09:11:34;28.90;99.90
11122;DHT22;5615;49.304;10.576;2023-08-24T09:14:01;29.20;99.90
11122;DHT22;5615;49.304;10.576;2023-08-24T09:16:29;29.60;99.90
11122;DHT22;5615;49.304;10.576;2023-08-24T09:18:56;30.00;99.90
11122;DHT22;5615;49.304;10.576;2023-08-24T09:21:23;30.20;99.90
11122;DHT22;5615;49.304;10.576;2023-08-24T09:23:53;30.40;99.90
11122;DHT22;5615;49.304;10.576;2023-08-24T09:26:27;30.60;99.90
11122;DHT22;5615;49.304;10.576;2023-08-24T09:28:56;30.80;99.30
11122;DHT22;5615;49.304;10.576;2023-08-24T09:31:23;30.70;97.40
11122;DHT22;5615;49.304;10.576;2023-08-24T09:33:49;30.90;96.80
11122;DHT22;5615;49.304;10.576;2023-08-24T09:36:17;30.00;97.10
11122;DHT22;5615;49.304;10.576;2023-08-24T09:38:47;29.70;96.80
11122;DHT22;5615;49.304;10.576;2023-08-24T09:41:15;29.60;97.10
11122;DHT22;5615;49.304;10.576;2023-08-24T09:43:41;30.10;97.00
11122;DHT22;5615;49.304;10.576;2023-08-24T09:46:09;30.70;96.10
11122;DHT22;5615;49.304;10.576;2023-08-24T09:48:36;31.20;95.50
11122;DHT22;5615;49.304;10.576;2023-08-24T09:51:04;31.40;94.50
11122;DHT22;5615;49.304;10.576;2023-08-24T09:53:33;31.70;94.00
11122;DHT22;5615;49.304;10.576;2023-08-24T09:56:01;32.30;93.10
11122;DHT22;5615;49.304;10.576;2023-08-24T09:58:29;32.50;91.50
11122;DHT22;5615;49.304;10.576;2023-08-24T10:00:56;32.70;90.60
11122;DHT22;5615;49.304;10.576;2023-08-24T10:03:25;32.50;87.30
11122;DHT22;5615;49.304;10.576;2023-08-24T10:05:53;32.50;87.20
11122;DHT22;5615;49.304;10.576;2023-08-24T10:08:24;32.40;87.10
11122;DHT22;5615;49.304;10.576;2023-08-24T10:10:53;32.10;86.80
11122;DHT22;5615;49.304;10.576;2023-08-24T10:13:26;32.00;86.90
11122;DHT22;5615;49.304;10.576;2023-08-24T10:15:55;32.00;86.90
11122;DHT22;5615;49.304;10.576;2023-08-24T10:18:22;32.40;85.70
11122;DHT22;5615;49.304;10.576;2023-08-24T10:20:51;33.00;84.40
11122;DHT22;5615;49.304;10.576;2023-08-24T10:23:19;33.30;82.50
11122;DHT22;5615;49.304;10.576;2023-08-24T10:25:46;33.70;81.30
11122;DHT22;5615;49.304;10.576;2023-08-24T10:28:14;34.10;81.80
11122;DHT22;5615;49.304;10.576;2023-08-24T10:30:41;34.20;79.10
11122;DHT22;5615;49.304;10.576;2023-08-24T10:33:10;34.20;77.70
11122;DHT22;5615;49.304;10.576;2023-08-24T10:35:37;34.60;77.90
11122;DHT22;5615;49.304;10.576;2023-08-24T10:38:05;35.00;76.50
11122;DHT22;5615;49.304;10.576;2023-08-24T10:40:32;35.60;74.20
11122;DHT22;5615;49.304;10.576;2023-08-24T10:43:02;35.90;72.10
11122;DHT22;5615;49.304;10.576;2023-08-24T10:45:53;36.30;71.00
11122;DHT22;5615;49.304;10.576;2023-08-24T10:48:22;37.10;69.10
11122;DHT22;5615;49.304;10.576;2023-08-24T10:51:16;37.40;67.00
11122;DHT22;5615;49.304;10.576;2023-08-24T10:53:47;37.90;64.70
11122;DHT22;5615;49.304;10.576;2023-08-24T10:56:14;38.30;64.50
11122;DHT22;5615;49.304;10.576;2023-08-24T10:58:41;39.00;60.70
11122;DHT22;5615;49.304;10.576;2023-08-24T11:01:14;39.50;58.60
11122;DHT22;5615;49.304;10.576;2023-08-24T11:03:41;40.20;56.40
11122;DHT22;5615;49.304;10.576;2023-08-24T11:06:19;40.40;54.90
11122;DHT22;5615;49.304;10.576;2023-08-24T11:08:48;40.20;53.20
11122;DHT22;5615;49.304;10.576;2023-08-24T11:11:19;40.80;51.80
11122;DHT22;5615;49.304;10.576;2023-08-24T11:14:13;40.90;50.50
11122;DHT22;5615;49.304;10.576;2023-08-24T11:16:41;41.00;50.30
11122;DHT22;5615;49.304;10.576;2023-08-24T11:19:08;41.30;49.10
11122;DHT22;5615;49.304;10.576;2023-08-24T11:21:37;41.30;46.70
11122;DHT22;5615;49.304;10.576;2023-08-24T11:24:06;40.80;47.70
11122;DHT22;5615;49.304;10.576;2023-08-24T11:26:33;40.40;48.00
11122;DHT22;5615;49.304;10.576;2023-08-24T11:29:00;40.30;47.90
11122;DHT22;5615;49.304;10.576;2023-08-24T11:31:30;40.20;47.30
11122;DHT22;5615;49.304;10.576;2023-08-24T11:33:57;40.50;47.40
11122;DHT22;5615;49.304;10.576;2023-08-24T11:36:23;40.60;46.60
11122;DHT22;5615;49.304;10.576;2023-08-24T11:38:52;40.50;46.30
11122;DHT22;5615;49.304;10.576;2023-08-24T11:41:20;40.50;45.40
11122;DHT22;5615;49.304;10.576;2023-08-24T11:43:48;40.00;45.40
11122;DHT22;5615;49.304;10.576;2023-08-24T11:46:16;39.30;46.00
11122;DHT22;5615;49.304;10.576;2023-08-24T11:48:43;39.30;46.00
11122;DHT22;5615;49.304;10.576;2023-08-24T11:51:11;39.70;45.40
11122;DHT22;5615;49.304;10.576;2023-08-24T11:53:39;39.70;45.30
11122;DHT22;5615;49.304;10.576;2023-08-24T11:56:08;40.40;44.80
11122;DHT22;5615;49.304;10.576;2023-08-24T11:58:38;40.30;44.30
11122;DHT22;5615;49.304;10.576;2023-08-24T12:01:05;40.20;44.10
11122;DHT22;5615;49.304;10.576;2023-08-24T12:03:32;40.20;43.80
11122;DHT22;5615;49.304;10.576;2023-08-24T12:05:59;40.10;43.60
11122;DHT22;5615;49.304;10.576;2023-08-24T12:08:26;40.60;43.50
11122;DHT22;5615;49.304;10.576;2023-08-24T12:10:53;41.00;43.00
11122;DHT22;5615;49.304;10.576;2023-08-24T12:13:20;41.20;42.90
11122;DHT22;5615;49.304;10.576;2023-08-24T12:15:48;40.60;42.50
11122;DHT22;5615;49.304;10.576;2023-08-24T12:18:17;40.50;43.30
11122;DHT22;5615;49.304;10.576;2023-08-24T12:20:44;41.10;43.00
11122;DHT22;5615;49.304;10.576;2023-08-24T12:23:11;41.90;41.90
11122;DHT22;5615;49.304;10.576;2023-08-24T12:25:42;42.00;41.20
11122;DHT22;5615;49.304;10.576;2023-08-24T12:28:10;42.50;41.10
11122;DHT22;5615;49.304;10.576;2023-08-24T12:30:44;42.30;40.70
11122;DHT22;5615;49.304;10.576;2023-08-24T12:33:22;43.00;41.10
11122;DHT22;5615;49.304;10.576;2023-08-24T12:35:49;43.40;40.30
11122;DHT22;5615;49.304;10.576;2023-08-24T12:38:16;44.10;39.80
11122;DHT22;5615;49.304;10.576;2023-08-24T12:40:43;44.00;38.10
11122;DHT22;5615;49.304;10.576;2023-08-24T12:43:10;43.70;38.60
11122;DHT22;5615;49.304;10.576;2023-08-24T12:45:36;43.70;39.00
11122;DHT22;5615;49.304;10.576;2023-08-24T12:48:04;44.40;38.20
11122;DHT22;5615;49.304;10.576;2023-08-24T12:50:33;44.10;37.80
11122;DHT22;5615;49.304;10.576;2023-08-24T12:53:00;43.70;38.10
11122;DHT22;5615;49.304;10.576;2023-08-24T12:55:28;43.80;38.40
11122;DHT22;5615;49.304;10.576;2023-08-24T12:57:55;43.40;38.30
11122;DHT22;5615;49.304;10.576;2023-08-24T13:00:22;43.10;38.70
11122;DHT22;5615;49.304;10.576;2023-08-24T13:02:49;43.00;39.00
11122;DHT22;5615;49.304;10.576;2023-08-24T13:05:16;42.50;38.50
11122;DHT22;5615;49.304;10.576;2023-08-24T13:07:44;42.60;39.00
11122;DHT22;5615;49.304;10.576;2023-08-24T13:10:11;42.10;39.30
11122;DHT22;5615;49.304;10.576;2023-08-24T13:12:38;41.80;39.40
11122;DHT22;5615;49.304;10.576;2023-08-24T13:15:06;41.50;39.80
11122;DHT22;5615;49.304;10.576;2023-08-24T13:17:32;41.60;40.20
11122;DHT22;5615;49.304;10.576;2023-08-24T13:19:59;41.20;40.70
11122;DHT22;5615;49.304;10.576;2023-08-24T13:22:26;40.90;40.50
11122;DHT22;5615;49.304;10.576;2023-08-24T13:24:54;40.20;40.30
11122;DHT22;5615;49.304;10.576;2023-08-24T13:27:20;39.40;40.90
11122;DHT22;5615;49.304;10.576;2023-08-24T13:29:47;39.10;42.00
11122;DHT22;5615;49.304;10.576;2023-08-24T13:32:13;38.70;42.40
11122;DHT22;5615;49.304;10.576;2023-08-24T13:34:40;38.70;42.40
11122;DHT22;5615;49.304;10.576;2023-08-24T13:37:07;38.40;42.80
11122;DHT22;5615;49.304;10.576;2023-08-24T13:39:33;38.40;43.10
11122;DHT22;5615;49.304;10.576;2023-08-24T13:42:01;38.60;42.70
11122;DHT22;5615;49.304;10.576;2023-08-24T13:44:28;39.80;42.60
11122;DHT22;5615;49.304;10.576;2023-08-24T13:46:55;40.00;41.70
11122;DHT22;5615;49.304;10.576;2023-08-24T13:49:21;39.80;42.00
11122;DHT22;5615;49.304;10.576;2023-08-24T13:51:48;39.70;42.00
11122;DHT22;5615;49.304;10.576;2023-08-24T13:54:15;39.60;41.90
11122;DHT22;5615;49.304;10.576;2023-08-24T13:56:42;38.80;42.70
11122;DHT22;5615;49.304;10.576;2023-08-24T13:59:10;38.60;43.20
11122;DHT22;5615;49.304;10.576;2023-08-24T14:01:37;38.00;43.80
11122;DHT22;5615;49.304;10.576;2023-08-24T14:04:04;37.80;44.40
11122;DHT22;5615;49.304;10.576;2023-08-24T14:06:32;38.20;44.30
11122;DHT22;5615;49.304;10.576;2023-08-24T14:09:00;38.90;43.40
11122;DHT22;5615;49.304;10.576;2023-08-24T14:11:28;39.30;43.60
11122;DHT22;5615;49.304;10.576;2023-08-24T14:13:55;40.10;43.30
11122;DHT22;5615;49.304;10.576;2023-08-24T14:16:23;40.80;42.10
11122;DHT22;5615;49.304;10.576;2023-08-24T14:18:51;42.50;41.30
11122;DHT22;5615;49.304;10.576;2023-08-24T14:21:18;43.40;39.20
11122;DHT22;5615;49.304;10.576;2023-08-24T14:23:45;43.50;38.40
11122;DHT22;5615;49.304;10.576;2023-08-24T14:26:12;43.90;38.50
11122;DHT22;5615;49.304;10.576;2023-08-24T14:28:49;43.70;37.70
11122;DHT22;5615;49.304;10.576;2023-08-24T14:31:16;43.90;38.40
11122;DHT22;5615;49.304;10.576;2023-08-24T14:33:44;44.20;38.10
11122;DHT22;5615;49.304;10.576;2023-08-24T14:36:11;44.60;37.20
11122;DHT22;5615;49.304;10.576;2023-08-24T14:38:38;44.20;37.30
11122;DHT22;5615;49.304;10.576;2023-08-24T14:41:05;44.80;37.60
11122;DHT22;5615;49.304;10.576;2023-08-24T14:43:32;45.10;36.30
11122;DHT22;5615;49.304;10.576;2023-08-24T14:45:59;45.00;36.50
11122;DHT22;5615;49.304;10.576;2023-08-24T14:48:26;44.70;35.90
11122;DHT22;5615;49.304;10.576;2023-08-24T14:50:54;44.60;35.80
11122;DHT22;5615;49.304;10.576;2023-08-24T14:53:21;45.00;36.10
11122;DHT22;5615;49.304;10.576;2023-08-24T14:55:47;43.40;35.80
11122;DHT22;5615;49.304;10.576;2023-08-24T14:58:14;42.80;36.70
11122;DHT22;5615;49.304;10.576;2023-08-24T15:00:40;42.60;37.20
11122;DHT22;5615;49.304;10.576;2023-08-24T15:03:07;42.30;37.40
11122;DHT22;5615;49.304;10.576;2023-08-24T15:05:40;42.40;37.30
11122;DHT22;5615;49.304;10.576;2023-08-24T15:08:08;42.60;37.10
11122;DHT22;5615;49.304;10.576;2023-08-24T15:10:36;42.20;37.50
11122;DHT22;5615;49.304;10.576;2023-08-24T15:13:03;42.00;37.90
11122;DHT22;5615;49.304;10.576;2023-08-24T15:15:30;42.00;38.10
11122;DHT22;5615;49.304;10.576;2023-08-24T15:17:56;42.90;37.80
11122;DHT22;5615;49.304;10.576;2023-08-24T15:20:23;43.50;36.90
11122;DHT22;5615;49.304;10.576;2023-08-24T15:22:50;44.20;37.10
11122;DHT22;5615;49.304;10.576;2023-08-24T15:25:18;44.50;36.60
11122;DHT22;5615;49.304;10.576;2023-08-24T15:27:46;43.90;35.80
11122;DHT22;5615;49.304;10.576;2023-08-24T15:30:13;42.30;36.60
11122;DHT22;5615;49.304;10.576;2023-08-24T15:32:40;40.50;38.00